Sawmill, Arizona
Current Conditions -  °F | °C
As of 3:53 PM on Thursday 23 Oct 2014 (Local Time) from KRQE Reporting Station
Clear Clear  
Wind Chill: 74°   Ceiling: Unl
Heat Index: 74°   Visibility: 10mi
Dew Point: 30°   Wind: 5mph
Humidity: 20%   Direction: 330°NNW
Pressure: 30.27"   Gusts: NA
Location:  35.89°N, 109.15°W
Report Text: KRQE 232153Z AUTO 33004KT 10SM CLR 23/M01 A3027 RMK AO2 SLP170 T02331011 TSNO
Loading
Personal Weather Stations






























Interactive Weather Map
Tropical Storm Tracking
New forecast layout! Learn more

10-Day Weather Forecast

Advertisements
Track Severe Weather on mobile